Airfield :
LOGIN :

Register | Disclaimer

   EN    FR    IT 

 










Legend :    VFR   Marginal VFR   IFR   Intensive IFR   Very Intensive IFR
Visi :
Ceiling :
>= 8 km
>= 3000ft
5 to 8 km
1000 to 3000 ft
1500m to 5 km
500 to 1000 ft
800 to 1500m
200 to 500 ft
< 800m
< 200 ft
Symbols :   Thunderstorms  Fog  Heavy snow  Heavy precipitations  Wind > 20 kt
SIGMETs :     Misc.  Thunderstorms  Icing  Turbulence  Mountain Waves  Volcanic Ashes






- Airport Elevation : 1947 ft
- IATA code : OBF


EDMO - Oberpfaffenhofen

CURRENT METAR :
  • 021120Z AUTO 08011KT 040V120 9999 // NCD 21/10 Q1023

EXPIRED METARs :
  • 021050Z 09011KT 040V130 CAVOK 20/12 Q1024
  • 021020Z AUTO 07010KT 030V110 9999 // NCD 20/11 Q1024
  • 020950Z AUTO 07013KT 030V100 9999 // NCD 19/11 Q1024
  • 020920Z 09013KT 060V120 CAVOK 18/11 Q1024
  • 020850Z 08012KT 040V100 CAVOK 17/11 Q1024
  • 020820Z 08011KT 040V110 CAVOK 17/12 Q1025

Expired Forecast.



MET'MAP, your aeronautical weather chart ! - Copyright ORBIFLY December 2007 - Disclaimer

ORBIFLY MET'MAP TEAM :

Programming & Development : Alexandra Zaïnal
Original concept : Baudouin d'Aumeries
Technical & hardware support : Manuel Goepfert
Assistance : Marc-Olivier Méhu




SOURCES & CREDITS :

   NOAA